Time;durP1;ratioP1;P1;durP2;ratioP2;P2;SDS_P1;SDS_P2;PMS_P1;PMS_P2;Temp;Humidity;BMP_temperature;BMP_pressure;BME280_temperature;BME280_humidity;BME280_pressure;Samples;Min_cycle;Max_cycle;Signal;HPM_P1;HPM_P2
2023/06/15 05:00:32;;;;;;;;;35.00;32.00;;;;;22.18;54.41;20861.28;5867013;23;45996;-84
2023/06/15 05:02:57;;;;;;;;;33.33;31.00;;;;;21.63;54.88;18458.91;4928673;22;45304;-82
2023/06/15 05:05:22;;;;;;;;;30.00;28.33;;;;;21.95;55.28;16768.97;4909842;28;45608;-82
2023/06/15 05:07:48;;;;;;;;;35.00;33.00;;;;;22.26;55.16;16098.31;4914988;28;45405;-82
2023/06/15 05:10:13;;;;;;;;;34.67;33.00;;;;;21.99;55.61;15409.81;4978566;28;45490;-88
2023/06/15 05:12:38;;;;;;;;;35.67;32.33;;;;;22.26;54.69;15418.06;4918934;28;45585;-83
2023/06/15 05:15:04;;;;;;;;;35.33;31.33;;;;;21.94;55.04;15068.44;4911639;28;46165;-83
2023/06/15 05:17:30;;;;;;;;;39.67;35.00;;;;;21.97;53.77;17790.16;4917494;28;45675;-85
2023/06/15 05:19:55;;;;;;;;;41.00;34.67;;;;;22.16;54.32;16775.53;4920624;28;45766;-86
2023/06/15 05:22:21;;;;;;;;;35.67;31.67;;;;;22.25;54.79;16778.50;4914743;28;45445;-84
2023/06/15 05:24:46;;;;;;;;;37.33;31.67;;;;;22.31;54.97;15079.44;4963269;28;48036;-83
2023/06/15 05:27:11;;;;;;;;;34.33;31.33;;;;;22.27;54.33;15078.22;4921655;28;45463;-83
2023/06/15 05:29:37;;;;;;;;;37.00;30.67;;;;;22.09;54.81;15072.94;4946165;28;45499;-82
2023/06/15 05:32:03;;;;;;;;;38.33;32.67;;;;;22.37;54.97;14400.75;4917289;28;45553;-84
2023/06/15 05:34:28;;;;;;;;;37.67;33.00;;;;;22.22;54.45;14056.34;4910318;28;47422;-83
2023/06/15 05:36:53;;;;;;;;;34.00;31.33;;;;;22.42;54.94;13041.63;4969490;28;54307;-83
2023/06/15 05:39:20;;;;;;;;;37.00;32.33;;;;;22.44;54.27;14742.81;4899179;28;45521;-83
2023/06/15 05:41:45;;;;;;;;;32.00;30.33;;;;;22.13;54.47;14394.06;4910905;28;45789;-83
2023/06/15 05:44:11;;;;;;;;;29.33;28.67;;;;;22.50;54.45;13384.00;4925641;28;46074;-81
2023/06/15 05:46:36;;;;;;;;;39.00;34.33;;;;;22.55;54.18;14065.75;4908798;28;46353;-81
2023/06/15 05:49:02;;;;;;;;;33.00;32.00;;;;;22.34;53.99;14400.03;4918275;28;45493;-83
2023/06/15 05:51:27;;;;;;;;;35.00;33.00;;;;;22.46;54.17;13042.84;4914620;28;45436;-83
2023/06/15 05:53:53;;;;;;;;;34.67;32.00;;;;;22.50;54.18;13724.16;4912850;28;46751;-83
2023/06/15 05:56:18;;;;;;;;;34.00;30.67;;;;;22.74;54.09;13730.56;4914100;28;45438;-83
2023/06/15 05:58:43;;;;;;;;;31.67;31.00;;;;;22.85;53.67;14074.00;4912708;28;45340;-83
2023/06/15 06:01:09;;;;;;;;;34.33;30.67;;;;;22.71;53.26;14750.81;4976812;28;45375;-83
2023/06/15 06:03:35;;;;;;;;;34.00;30.33;;;;;23.03;53.21;16803.69;4915001;28;45999;-83
2023/06/15 06:06:01;;;;;;;;;35.33;33.67;;;;;23.11;53.15;16806.16;4916139;28;45424;-83
2023/06/15 06:08:26;;;;;;;;;36.67;31.67;;;;;23.17;52.78;17830.78;4919370;28;45510;-83
2023/06/15 06:10:52;;;;;;;;;32.67;31.33;;;;;23.26;52.94;17151.78;4912278;28;45379;-83
2023/06/15 06:13:17;;;;;;;;;34.00;29.67;;;;;23.36;52.20;18519.22;4916777;28;46010;-83
2023/06/15 06:15:42;;;;;;;;;23.33;21.33;;;;;23.46;49.68;25692.13;4917039;28;45415;-83
2023/06/15 06:18:08;;;;;;;;;18.33;16.67;;;;;23.34;47.69;37628.09;4901164;28;45468;-83
2023/06/15 06:20:33;;;;;;;;;16.67;16.00;;;;;23.45;46.90;41594.88;4982976;28;45491;-83
2023/06/15 06:22:58;;;;;;;;;18.00;15.33;;;;;23.68;46.99;43676.34;4899237;28;45982;-83
2023/06/15 06:25:24;;;;;;;;;14.00;14.00;;;;;23.83;45.98;46246.09;4916500;28;45431;-83
2023/06/15 06:27:49;;;;;;;;;13.67;13.67;;;;;23.95;45.56;48259.97;4917085;28;45493;-83
2023/06/15 06:30:14;;;;;;;;;14.00;12.67;;;;;24.01;44.65;50444.69;4917253;28;45418;-83
2023/06/15 06:32:40;;;;;;;;;17.33;15.00;;;;;24.04;44.22;52069.13;4908674;28;48188;-83
2023/06/15 06:35:06;;;;;;;;;17.00;16.33;;;;;24.09;44.67;52940.06;4899658;28;45541;-83
2023/06/15 06:37:31;;;;;;;;;11.33;11.33;;;;;24.15;44.34;53890.31;4899424;28;45462;-83
2023/06/15 06:39:56;;;;;;;;;15.67;14.33;;;;;23.94;44.32;53941.06;4899887;28;45441;-83
2023/06/15 06:42:22;;;;;;;;;12.00;10.00;;;;;24.31;44.11;54865.72;4916186;28;46936;-83
2023/06/15 06:44:47;;;;;;;;;16.67;16.67;;;;;24.37;43.66;55248.50;4916403;28;45395;-83
2023/06/15 06:47:12;;;;;;;;;8.33;7.00;;;;;24.47;43.31;56017.44;4916997;28;45499;-83
2023/06/15 06:49:38;;;;;;;;;17.00;14.67;;;;;24.54;43.17;56393.47;4917384;28;45385;-83
2023/06/15 06:52:04;;;;;;;;;60.75;46.50;;;;;24.53;43.03;56848.50;4896464;28;47252;-83
2023/06/15 06:54:30;;;;;;;;;14.00;11.67;;;;;24.73;42.53;57468.53;4915621;28;45521;-83
2023/06/15 06:56:55;;;;;;;;;10.00;9.00;;;;;24.78;42.79;57638.03;4962928;28;45355;-83
2023/06/15 06:59:20;;;;;;;;;13.00;11.33;;;;;24.68;42.85;58111.28;4898382;29;45551;-83
2023/06/15 07:01:46;;;;;;;;;14.00;13.00;;;;;24.53;42.38;58576.66;4890084;28;48772;-83
2023/06/15 07:04:12;;;;;;;;;11.33;9.33;;;;;24.96;41.30;59858.06;4916691;28;45445;-83
2023/06/15 07:06:37;;;;;;;;;11.67;11.67;;;;;24.78;41.74;60255.56;4913043;28;45497;-83
2023/06/15 07:09:03;;;;;;;;;12.00;11.00;;;;;24.90;42.03;60123.94;4912274;28;45458;-83
2023/06/15 07:11:28;;;;;;;;;19.33;13.67;;;;;25.08;42.28;59712.84;4906876;28;46470;-83
2023/06/15 07:13:53;;;;;;;;;12.00;12.00;;;;;25.17;42.11;59708.63;4915834;28;45499;-83
2023/06/15 07:16:19;;;;;;;;;14.33;12.00;;;;;25.01;42.22;59714.25;4916066;28;45482;-83
2023/06/15 07:18:44;;;;;;;;;17.67;13.33;;;;;25.02;42.22;59553.31;4916581;28;45422;-83
2023/06/15 07:21:10;;;;;;;;;10.67;10.67;;;;;25.12;42.49;59641.38;4919445;28;45532;-83
2023/06/15 07:23:35;;;;;;;;;11.00;11.00;;;;;25.11;42.08;59638.16;4918636;28;45435;-83
2023/06/15 07:26:01;;;;;;;;;13.67;12.00;;;;;25.44;41.87;59703.59;4899564;28;45993;-83
2023/06/15 07:28:26;;;;;;;;;12.00;11.00;;;;;25.47;41.49;60288.06;4916401;28;45667;-83
2023/06/15 07:30:51;;;;;;;;;10.67;10.67;;;;;25.53;41.46;60287.84;4916687;28;46165;-83
2023/06/15 07:33:18;;;;;;;;;10.00;10.00;;;;;25.60;41.52;60584.31;4904560;28;45463;-83
2023/06/15 07:35:44;;;;;;;;;13.67;12.33;;;;;25.68;41.52;60617.53;4897877;28;45377;-83
2023/06/15 07:38:09;;;;;;;;;13.00;13.00;;;;;25.73;40.68;61278.59;4881540;28;45294;-83
2023/06/15 07:40:34;;;;;;;;;14.67;12.67;;;;;25.70;41.11;61352.19;4897566;28;46537;-83
2023/06/15 07:43:00;;;;;;;;;9.00;9.00;;;;;25.64;40.22;61791.91;4897678;29;45352;-83
2023/06/15 07:45:25;;;;;;;;;11.67;10.33;;;;;25.90;40.79;61662.25;4899490;28;45470;-83
2023/06/15 07:47:50;;;;;;;;;11.00;10.00;;;;;26.04;41.47;61032.81;4897387;28;45751;-83
2023/06/15 07:50:16;;;;;;;;;9.33;9.33;;;;;26.11;40.50;61786.84;4916361;28;47922;-83
2023/06/15 07:52:41;;;;;;;;;9.67;9.67;;;;;26.11;40.16;62297.72;4916483;28;45595;-83
2023/06/15 07:55:07;;;;;;;;;12.33;10.00;;;;;26.21;39.35;62652.16;4916608;28;45498;-83
2023/06/15 07:57:36;;;;;;;;;9.67;9.67;;;;;26.15;39.53;63111.19;4916302;28;45526;-83
2023/06/15 08:00:05;;;;;;;;;9.33;9.33;;;;;26.37;40.11;62654.81;4899195;28;48398;-83
2023/06/15 08:02:30;;;;;;;;;12.67;10.67;;;;;26.44;41.17;61980.66;4916195;28;45435;-82
2023/06/15 08:04:56;;;;;;;;;10.00;8.67;;;;;26.55;39.99;62773.91;4915421;28;45562;-81
2023/06/15 08:07:21;;;;;;;;;11.00;9.33;;;;;26.40;40.16;62284.47;4915995;28;45356;-81
2023/06/15 08:09:47;;;;;;;;;10.33;7.00;;;;;26.70;40.67;62419.06;4898645;28;45616;-81
2023/06/15 08:12:12;;;;;;;;;9.00;8.00;;;;;26.81;38.52;63814.88;4916107;28;45388;-82
2023/06/15 08:14:37;;;;;;;;;9.00;9.00;;;;;26.73;38.55;64240.75;4916053;28;45871;-82
2023/06/15 08:17:03;;;;;;;;;11.00;9.33;;;;;26.79;39.36;63829.50;4916000;28;45520;-82
2023/06/15 08:19:29;;;;;;;;;11.00;9.67;;;;;26.10;39.53;63644.91;4898623;28;47467;-84
2023/06/15 08:21:55;;;;;;;;;14.33;10.67;;;;;27.13;39.39;63464.47;4915325;28;45462;-82
2023/06/15 08:24:20;;;;;;;;;10.00;10.00;;;;;26.80;38.49;64052.81;4915183;28;45486;-81
2023/06/15 08:26:48;;;;;;;;;9.33;9.33;;;;;27.02;38.26;64122.59;4898406;28;45410;-84
2023/06/15 08:29:14;;;;;;;;;9.00;9.00;;;;;27.38;38.87;63873.16;4915730;28;46558;-85
2023/06/15 08:31:40;;;;;;;;;10.33;9.33;;;;;27.26;38.21;64316.16;4898700;28;45979;-84
2023/06/15 08:34:06;;;;;;;;;11.00;10.00;;;;;27.19;39.33;63980.81;4916018;28;45455;-85
2023/06/15 08:36:32;;;;;;;;;19.00;14.67;;;;;26.92;39.09;63686.56;4914452;28;45758;-83
2023/06/15 08:38:57;;;;;;;;;10.67;10.67;;;;;27.85;40.07;62599.28;4914065;28;46030;-82
2023/06/15 08:41:25;;;;;;;;;9.67;9.67;;;;;27.89;38.55;63621.91;4912789;28;45770;-83
2023/06/15 08:43:53;;;;;;;;;9.33;9.33;;;;;28.38;40.09;62386.47;4915097;28;45541;-81
2023/06/15 08:46:20;;;;;;;;;10.00;10.00;;;;;29.25;39.61;62089.44;4914752;28;45512;-85
2023/06/15 08:48:47;;;;;;;;;10.00;10.00;;;;;30.18;37.17;61614.28;4915129;28;45418;-84
2023/06/15 08:51:12;;;;;;;;;11.67;11.00;;;;;30.46;37.39;62997.53;4898208;28;45372;-85
2023/06/15 08:53:42;;;;;;;;;9.00;9.00;;;;;29.92;35.56;65020.28;4898471;28;45583;-83
2023/06/15 08:56:13;;;;;;;;;9.00;9.00;;;;;30.13;35.87;64729.78;4916120;28;45492;-83
2023/06/15 08:58:40;;;;;;;;;9.67;8.33;;;;;30.90;37.62;63338.56;4915279;28;46192;-84
2023/06/15 09:01:06;;;;;;;;;14.67;14.67;;;;;30.75;37.00;64017.56;4914911;28;45484;-86
2023/06/15 09:03:36;;;;;;;;;16.67;14.00;;;;;30.46;36.85;64831.31;4906396;28;45556;-85
2023/06/15 09:06:02;;;;;;;;;12.00;12.00;;;;;30.62;36.08;64988.16;4895736;29;45405;-86
2023/06/15 09:08:28;;;;;;;;;13.33;13.33;;;;;30.45;37.84;64230.50;4900419;28;46482;-87
2023/06/15 09:11:06;;;;;;;;;9.33;9.33;;;;;30.75;36.28;65337.63;4918052;28;45439;-83
2023/06/15 09:13:33;;;;;;;;;8.33;8.33;;;;;30.79;34.09;66585.69;4919317;28;45479;-83
2023/06/15 09:16:00;;;;;;;;;11.00;11.00;;;;;30.94;37.16;65101.88;4918604;28;45480;-84
2023/06/15 09:18:25;;;;;;;;;10.33;10.33;;;;;30.90;37.00;64969.16;4918170;28;46605;-83
2023/06/15 09:20:51;;;;;;;;;12.00;9.67;;;;;30.86;35.79;65843.25;4917279;28;45400;-82
2023/06/15 09:23:17;;;;;;;;;11.33;10.67;;;;;30.90;37.59;65166.16;4900847;28;45470;-84
2023/06/15 09:25:51;;;;;;;;;11.00;9.67;;;;;31.54;36.34;65416.25;4902393;28;45788;-86
2023/06/15 09:28:21;;;;;;;;;12.33;12.33;;;;;31.71;36.94;65281.19;4918878;28;45633;-85
2023/06/15 09:30:52;;;;;;;;;11.67;11.67;;;;;31.83;36.99;65095.16;4900765;28;45403;-86
2023/06/15 09:33:19;;;;;;;;;10.00;9.67;;;;;32.11;35.57;65631.00;4902145;28;45527;-85
2023/06/15 09:36:04;;;;;;;;;10.00;10.00;;;;;32.20;35.89;65455.19;4916444;28;45418;-90
2023/06/15 09:38:32;;;;;;;;;11.67;10.00;;;;;32.35;35.46;65435.88;4916365;28;47855;-84
2023/06/15 09:41:03;;;;;;;;;11.67;11.67;;;;;32.31;35.41;65817.56;4917181;28;45478;-87
2023/06/15 09:43:34;;;;;;;;;11.00;9.33;;;;;32.70;31.89;67297.31;4901673;28;45391;-85
2023/06/15 09:46:01;;;;;;;;;10.00;9.67;;;;;33.29;33.06;66911.38;4901181;28;45501;-84
2023/06/15 09:48:30;;;;;;;;;9.33;9.33;;;;;34.35;31.59;67378.31;4917018;28;46448;-83
2023/06/15 09:51:00;;;;;;;;;9.67;8.67;;;;;35.85;30.35;68212.16;4913881;28;45388;-83
2023/06/15 09:53:28;;;;;;;;;11.00;11.00;;;;;36.24;29.37;68451.81;4916710;28;45408;-84
2023/06/15 09:55:54;;;;;;;;;9.00;9.00;;;;;36.71;29.38;68676.88;4917509;28;45415;-86
2023/06/15 09:58:20;;;;;;;;;9.67;9.33;;;;;36.97;29.25;68935.50;4901036;28;48257;-86
2023/06/15 10:00:47;;;;;;;;;9.00;9.00;;;;;37.54;25.87;69064.09;4917095;28;45510;-85
2023/06/15 10:03:18;;;;;;;;;9.33;9.33;;;;;37.34;28.58;69170.25;4916695;28;45484;-85
2023/06/15 10:05:45;;;;;;;;;8.00;8.00;;;;;37.00;29.00;69164.53;4917377;28;45454;-90
2023/06/15 10:08:12;;;;;;;;;7.67;6.67;;;;;36.86;29.57;69231.34;4916150;28;48140;-87
2023/06/15 10:10:41;;;;;;;;;8.00;8.00;;;;;37.03;29.14;69206.66;4883186;29;45708;-85
2023/06/15 10:13:11;;;;;;;;;11.67;10.00;;;;;37.34;28.21;69082.53;4898338;28;45500;-85
2023/06/15 10:15:37;;;;;;;;;8.33;8.33;;;;;37.70;28.14;69274.91;4906133;28;45636;-88
2023/06/15 10:18:03;;;;;;;;;8.00;8.00;;;;;37.92;27.49;69273.19;4916878;28;45465;-84
2023/06/15 10:20:30;;;;;;;;;9.67;9.67;;;;;38.13;28.10;69358.09;4922001;28;45578;-86
2023/06/15 10:23:04;;;;;;;;;10.33;7.33;;;;;38.29;28.24;69359.19;4917237;28;45503;-83
2023/06/15 10:25:30;;;;;;;;;8.00;6.33;;;;;38.49;27.44;69387.72;4915384;28;45673;-83
2023/06/15 10:27:56;;;;;;;;;8.00;8.00;;;;;38.63;27.10;69404.81;4915994;28;46222;-83
2023/06/15 10:30:25;;;;;;;;;7.33;7.33;;;;;38.69;27.09;69314.50;4898879;28;45773;-83
2023/06/15 10:32:56;;;;;;;;;7.67;7.67;;;;;38.72;26.92;69394.88;4916306;28;45803;-84
2023/06/15 10:35:38;;;;;;;;;5.67;5.67;;;;;38.67;27.39;69405.56;4896750;28;45584;-84
2023/06/15 10:38:06;;;;;;;;;7.00;7.00;;;;;38.67;26.51;69342.56;4917061;28;45514;-84
2023/06/15 10:40:41;;;;;;;;;7.00;7.00;;;;;38.68;26.83;69459.88;4899659;28;45473;-84
2023/06/15 10:43:06;;;;;;;;;8.00;8.00;;;;;38.66;26.91;69413.28;4916755;28;45533;-84
2023/06/15 10:45:33;;;;;;;;;8.00;8.00;;;;;38.66;26.46;69335.25;4917322;28;45300;-84
2023/06/15 10:48:01;;;;;;;;;8.00;8.00;;;;;38.49;26.28;69321.97;4898714;28;47630;-84
2023/06/15 10:50:28;;;;;;;;;9.67;9.67;;;;;38.46;26.47;69367.56;4915185;28;45523;-84
2023/06/15 10:52:55;;;;;;;;;9.33;9.33;;;;;38.34;26.52;69332.50;4912847;28;45607;-84
2023/06/15 10:55:27;;;;;;;;;8.67;8.67;;;;;38.25;26.37;69432.44;4915425;28;45737;-84
2023/06/15 10:58:15;;;;;;;;;6.33;6.33;;;;;38.12;26.84;69401.13;4898314;28;47352;-84
2023/06/15 11:00:41;;;;;;;;;10.00;8.33;;;;;38.13;26.47;69434.88;4914958;28;45502;-84
2023/06/15 11:03:23;;;;;;;;;8.67;8.67;;;;;37.99;27.19;69457.59;4915079;28;45564;-84
2023/06/15 11:06:02;;;;;;;;;8.00;8.00;;;;;37.58;27.05;69336.47;4915127;28;45757;-84
2023/06/15 11:08:31;;;;;;;;;10.00;10.00;;;;;37.62;26.99;69414.53;4898339;28;46429;-84
2023/06/15 11:10:57;;;;;;;;;9.33;9.33;;;;;37.67;26.86;69539.72;4913135;28;45435;-84
2023/06/15 11:13:26;;;;;;;;;9.00;9.00;;;;;37.49;27.02;69413.59;4910373;28;45528;-84
2023/06/15 11:16:10;;;;;;;;;12.00;10.00;;;;;37.53;27.04;69424.44;4914947;28;45317;-84
2023/06/15 11:18:36;;;;;;;;;9.00;9.00;;;;;37.46;26.38;69434.84;4915165;28;47363;-83
2023/06/15 11:21:02;;;;;;;;;8.33;8.33;;;;;37.54;24.00;69271.06;4914741;28;45624;-84
2023/06/15 11:23:32;;;;;;;;;10.67;10.67;;;;;37.46;26.11;69421.66;4914960;28;45672;-84
2023/06/15 11:26:01;;;;;;;;;12.00;10.33;;;;;37.14;25.72;69401.66;4919020;28;45543;-92
2023/06/15 11:28:31;;;;;;;;;12.33;10.33;;;;;37.37;24.92;69284.13;4914976;28;46152;-85
2023/06/15 11:31:01;;;;;;;;;11.33;11.33;;;;;37.37;23.41;69240.00;4915638;28;45477;-88
2023/06/15 11:33:35;;;;;;;;;12.00;11.33;;;;;37.15;25.86;69411.09;4900096;28;45585;-86
2023/06/15 11:36:09;;;;;;;;;10.67;10.67;;;;;37.05;25.65;69360.66;4898599;28;45617;-86
2023/06/15 11:38:34;;;;;;;;;15.00;11.67;;;;;37.45;26.32;69362.53;4915726;28;45549;-85
2023/06/15 11:41:04;;;;;;;;;14.00;12.00;;;;;37.44;25.17;69275.81;4914877;28;45352;-86
2023/06/15 11:43:40;;;;;;;;;12.67;11.33;;;;;37.64;25.38;69334.69;4905934;28;45617;-87
2023/06/15 11:46:13;;;;;;;;;8.33;8.00;;;;;37.85;26.34;69367.09;4898867;28;45499;-86
2023/06/15 11:48:40;;;;;;;;;12.67;11.00;;;;;37.55;26.12;69321.91;4916587;28;46065;-88
2023/06/15 11:51:10;;;;;;;;;12.67;12.67;;;;;37.05;26.91;69390.41;4913208;28;45491;-87
2023/06/15 11:53:38;;;;;;;;;12.33;12.33;;;;;36.45;27.60;69451.47;4907476;28;45724;-87
2023/06/15 11:56:13;;;;;;;;;11.67;11.67;;;;;36.61;27.19;69477.50;4897429;28;45553;-87
2023/06/15 11:58:41;;;;;;;;;13.33;11.67;;;;;36.33;27.32;69473.13;4913424;28;45486;-86
2023/06/15 12:01:12;;;;;;;;;15.67;14.67;;;;;36.00;27.83;69586.13;4915495;28;45905;-88
2023/06/15 12:03:47;;;;;;;;;12.33;12.33;;;;;35.67;28.05;69488.31;4915529;28;45438;-89
2023/06/15 12:06:21;;;;;;;;;9.33;9.33;;;;;35.39;28.78;69582.28;4882027;28;45597;-89
2023/06/15 12:08:52;;;;;;;;;12.33;12.33;;;;;35.54;27.80;69541.09;4912542;28;48161;-87
2023/06/15 12:11:25;;;;;;;;;15.33;13.00;;;;;34.99;29.25;69511.34;4914438;28;46513;-86
2023/06/15 12:13:51;;;;;;;;;14.00;13.00;;;;;34.79;29.56;69586.59;4914975;28;45467;-88
2023/06/15 12:16:17;;;;;;;;;13.00;12.00;;;;;34.88;29.43;69646.75;4915736;28;45522;-85
2023/06/15 12:18:42;;;;;;;;;15.00;15.00;;;;;34.71;29.99;69659.56;4895162;29;46575;-87
2023/06/15 12:21:08;;;;;;;;;13.00;12.67;;;;;34.56;30.98;69708.25;4896507;28;45500;-85
2023/06/15 12:23:33;;;;;;;;;12.67;12.67;;;;;34.17;29.41;69613.75;4896686;28;45697;-84
2023/06/15 12:26:03;;;;;;;;;11.67;11.33;;;;;34.35;31.09;69703.13;4897415;29;45796;-86
2023/06/15 12:28:32;;;;;;;;;17.00;14.33;;;;;34.09;31.09;69643.28;4898327;28;47441;-93
2023/06/15 12:31:05;;;;;;;;;14.00;12.00;;;;;33.12;32.22;69742.16;4900249;28;45474;-88
2023/06/15 12:33:38;;;;;;;;;13.67;13.67;;;;;33.93;32.23;69627.00;4899869;28;45538;-89
2023/06/15 12:36:10;;;;;;;;;13.00;13.00;;;;;33.87;32.37;69700.06;4916742;28;45694;-88
2023/06/15 12:38:37;;;;;;;;;14.00;12.33;;;;;33.84;32.43;69641.63;4916771;28;45501;-89
2023/06/15 12:41:03;;;;;;;;;14.33;14.33;;;;;33.36;32.44;69633.00;4916304;28;45435;-90
2023/06/15 12:43:28;;;;;;;;;15.00;14.33;;;;;33.70;31.21;69646.97;4899343;28;45505;-92
2023/06/15 12:45:54;;;;;;;;;13.33;12.67;;;;;33.43;33.35;69627.63;4900934;28;45779;-90
2023/06/15 12:48:22;;;;;;;;;16.67;16.00;;;;;33.40;31.37;69656.38;4899314;28;48662;-88
2023/06/15 12:50:47;;;;;;;;;16.67;15.00;;;;;33.21;33.37;69678.84;4915578;28;45473;-85
2023/06/15 12:53:13;;;;;;;;;16.00;15.67;;;;;33.07;33.86;69659.50;4915794;28;45432;-82
2023/06/15 12:55:39;;;;;;;;;16.33;14.00;;;;;33.06;31.80;69671.41;4898975;28;45536;-92
2023/06/15 12:58:05;;;;;;;;;16.33;14.67;;;;;33.00;32.99;69624.34;4898947;28;45609;-91
2023/06/15 13:00:31;;;;;;;;;13.67;13.67;;;;;32.85;30.07;69666.19;4916221;28;45562;-84
2023/06/15 13:03:01;;;;;;;;;13.67;13.67;;;;;32.46;32.90;69629.25;4914771;28;45542;-86
2023/06/15 13:05:27;;;;;;;;;17.33;14.33;;;;;32.95;33.39;69626.03;4914328;28;45627;-86
2023/06/15 13:07:52;;;;;;;;;16.33;15.00;;;;;32.89;33.61;69781.16;4898031;28;47354;-91
2023/06/15 13:10:21;;;;;;;;;14.33;14.33;;;;;32.89;33.47;69572.31;4900048;28;45499;-92
2023/06/15 13:12:47;;;;;;;;;16.00;15.33;;;;;32.21;34.16;69474.84;4898710;28;45496;-90
2023/06/15 13:15:12;;;;;;;;;17.00;14.33;;;;;32.75;33.37;69559.63;4915874;28;45380;-88
2023/06/15 13:17:38;;;;;;;;;15.00;15.00;;;;;32.36;33.96;69590.59;4915726;28;46258;-87
2023/06/15 13:20:05;;;;;;;;;10.67;10.67;;;;;32.69;32.71;69662.09;4915551;28;45523;-86
2023/06/15 13:22:31;;;;;;;;;16.67;15.33;;;;;32.55;34.00;69598.91;4915954;28;45516;-87
2023/06/15 13:24:56;;;;;;;;;14.33;14.00;;;;;32.13;34.06;69537.09;4915673;28;45448;-89
2023/06/15 13:27:22;;;;;;;;;19.00;16.00;;;;;32.14;34.63;69699.16;4915189;28;46373;-84
2023/06/15 13:29:47;;;;;;;;;15.00;15.00;;;;;32.24;34.32;69557.78;4914747;28;45534;-85
2023/06/15 13:32:15;;;;;;;;;14.33;14.33;;;;;31.98;34.56;69548.78;4915465;28;45492;-87
2023/06/15 13:34:41;;;;;;;;;15.00;15.00;;;;;32.23;34.91;69592.16;4898734;28;45416;-91
2023/06/15 13:37:06;;;;;;;;;15.00;15.00;;;;;32.07;34.86;69524.50;4898402;28;48628;-87
2023/06/15 13:39:31;;;;;;;;;15.33;13.67;;;;;32.20;34.32;69538.75;4915167;28;45491;-83
2023/06/15 13:41:57;;;;;;;;;15.33;12.33;;;;;32.15;35.04;69534.00;4914746;28;45372;-82
2023/06/15 13:44:22;;;;;;;;;65.50;49.75;;;;;31.99;31.01;69648.50;4915175;28;45431;-83
2023/06/15 13:46:47;;;;;;;;;19.00;19.00;;;;;31.69;33.56;69600.91;4915110;28;46129;-84
2023/06/15 13:49:13;;;;;;;;;26.67;25.00;;;;;31.52;33.46;69641.44;4897614;28;45409;-83
2023/06/15 13:51:38;;;;;;;;;22.67;21.33;;;;;31.25;33.33;69615.38;4914734;28;45379;-84
2023/06/15 13:54:04;;;;;;;;;17.67;15.67;;;;;31.23;34.21;69593.84;4915333;28;45454;-83
2023/06/15 13:56:30;;;;;;;;;19.67;19.67;;;;;31.03;33.13;69636.25;4914692;28;47102;-83
2023/06/15 13:58:56;;;;;;;;;20.67;18.67;;;;;30.88;33.91;69656.63;4914026;28;45805;-83
2023/06/15 14:01:24;;;;;;;;;15.67;15.67;;;;;30.50;32.81;69659.59;4897467;28;45513;-82
2023/06/15 14:03:51;;;;;;;;;19.00;16.33;;;;;30.81;32.49;69678.94;4914562;28;45443;-82
2023/06/15 14:06:16;;;;;;;;;19.67;16.33;;;;;30.61;34.43;69589.59;4914400;28;47246;-82
2023/06/15 14:08:42;;;;;;;;;16.00;15.67;;;;;30.49;35.62;69548.63;4914786;28;45466;-82
2023/06/15 14:11:08;;;;;;;;;18.33;18.33;;;;;30.34;34.52;69607.19;4913906;28;45369;-82
2023/06/15 14:13:33;;;;;;;;;17.33;16.67;;;;;29.86;34.14;69570.94;4914153;28;45348;-82
2023/06/15 14:15:59;;;;;;;;;14.33;14.33;;;;;29.98;35.13;69587.34;4914181;28;45397;-82
2023/06/15 14:18:25;;;;;;;;;17.33;17.00;;;;;30.13;34.07;69642.81;4908557;28;46076;-82
2023/06/15 14:20:50;;;;;;;;;16.33;14.33;;;;;30.13;34.40;69577.31;4895757;29;45463;-82
2023/06/15 14:23:16;;;;;;;;;14.33;12.33;;;;;30.21;34.18;69646.88;4909382;28;45639;-82
2023/06/15 14:25:42;;;;;;;;;14.00;14.00;;;;;30.07;34.44;69595.94;4908545;28;47349;-82
2023/06/15 14:28:07;;;;;;;;;15.00;15.00;;;;;30.14;35.03;69628.22;4908007;28;45507;-82
2023/06/15 14:30:33;;;;;;;;;20.00;16.33;;;;;30.09;34.86;69543.75;4919062;28;45638;-82
2023/06/15 14:32:58;;;;;;;;;19.00;15.67;;;;;30.52;35.18;69579.47;4974056;28;45577;-82
2023/06/15 14:35:24;;;;;;;;;16.00;16.00;;;;;30.66;35.49;69560.63;4887886;28;46820;-82
2023/06/15 14:37:51;;;;;;;;;18.67;16.33;;;;;30.58;35.08;69602.41;4897074;28;45508;-82
2023/06/15 14:40:16;;;;;;;;;15.33;15.33;;;;;30.63;34.89;69564.69;4976131;28;45445;-82
2023/06/15 14:42:50;;;;;;;;;14.00;14.00;;;;;30.65;34.29;69616.78;4914099;28;45407;-82
2023/06/15 14:45:20;;;;;;;;;16.33;16.33;;;;;30.55;34.61;69596.09;4899075;28;47077;-82
2023/06/15 14:47:48;;;;;;;;;16.00;16.00;;;;;30.50;34.89;69558.59;4905130;28;45502;-82
2023/06/15 14:50:14;;;;;;;;;14.33;14.33;;;;;30.45;35.01;69571.16;4917193;28;45736;-82
2023/06/15 14:52:40;;;;;;;;;14.33;13.00;;;;;30.10;35.45;69541.63;4918240;28;45526;-82
2023/06/15 14:55:06;;;;;;;;;13.33;12.33;;;;;30.22;35.65;69558.03;4942596;28;47207;-83
2023/06/15 14:57:32;;;;;;;;;15.00;15.00;;;;;30.28;35.40;69592.47;4913773;28;45468;-82
2023/06/15 14:59:57;;;;;;;;;19.00;16.33;;;;;30.35;35.57;69513.47;4916755;28;45434;-82
2023/06/15 15:02:23;;;;;;;;;16.00;14.00;;;;;30.41;35.86;69501.50;4916285;28;45385;-82
2023/06/15 15:04:49;;;;;;;;;15.67;13.67;;;;;30.47;35.64;69516.22;4916232;28;46240;-82
2023/06/15 15:07:14;;;;;;;;;15.33;15.33;;;;;30.52;36.25;69491.53;4923216;28;45601;-82
2023/06/15 15:09:40;;;;;;;;;13.33;13.33;;;;;30.18;35.92;69474.75;4915850;28;45414;-82
2023/06/15 15:12:06;;;;;;;;;17.33;16.33;;;;;30.56;35.83;69475.06;4916905;28;45661;-82
2023/06/15 15:14:31;;;;;;;;;12.33;12.33;;;;;30.57;36.15;69505.66;4912332;28;45554;-82
2023/06/15 15:16:57;;;;;;;;;17.00;17.00;;;;;30.55;36.31;69479.31;4916309;28;45502;-82
2023/06/15 15:19:22;;;;;;;;;15.67;13.67;;;;;30.30;36.08;69412.03;4912231;28;46727;-82
2023/06/15 15:21:48;;;;;;;;;19.67;16.67;;;;;30.45;36.74;69478.34;4916073;28;45479;-82
2023/06/15 15:24:13;;;;;;;;;16.33;13.33;;;;;30.07;36.38;69423.50;4915234;28;46262;-82
2023/06/15 15:26:38;;;;;;;;;16.00;13.00;;;;;30.45;36.77;69459.25;4932881;28;45790;-83
2023/06/15 15:29:04;;;;;;;;;16.33;15.00;;;;;30.43;36.20;69435.03;4917063;28;45806;-82
2023/06/15 15:31:29;;;;;;;;;14.00;12.33;;;;;30.34;36.64;69391.63;4912835;28;45471;-82
2023/06/15 15:33:54;;;;;;;;;17.33;14.33;;;;;30.24;36.96;69391.25;4896966;28;45448;-83
2023/06/15 15:36:20;;;;;;;;;14.33;13.67;;;;;30.17;36.39;69402.63;4901057;28;45379;-82
2023/06/15 15:38:45;;;;;;;;;13.67;13.67;;;;;30.35;37.13;69374.31;4979602;28;45432;-82
2023/06/15 15:41:11;;;;;;;;;16.67;13.00;;;;;30.32;35.94;69417.13;4902179;28;45539;-82
2023/06/15 15:43:37;;;;;;;;;15.33;15.00;;;;;30.30;37.28;69357.47;4917574;28;47062;-82
2023/06/15 15:46:02;;;;;;;;;12.33;12.33;;;;;30.18;36.31;69387.44;4916105;28;45480;-82
2023/06/15 15:48:28;;;;;;;;;14.67;14.00;;;;;30.25;36.89;69365.13;4914032;28;45523;-82
2023/06/15 15:50:53;;;;;;;;;13.00;13.00;;;;;30.23;36.63;69373.69;4916645;28;45400;-82
2023/06/15 15:53:19;;;;;;;;;11.67;11.67;;;;;30.18;36.89;69348.66;4899336;28;47391;-82
2023/06/15 15:55:44;;;;;;;;;13.33;11.67;;;;;30.18;36.89;69343.19;4910514;28;45547;-81
2023/06/15 15:58:10;;;;;;;;;12.00;12.00;;;;;30.15;37.22;69277.47;4924988;28;45846;-82
2023/06/15 16:00:35;;;;;;;;;10.67;10.33;;;;;29.91;36.44;69366.31;4937878;28;45739;-82
2023/06/15 16:03:00;;;;;;;;;14.00;14.00;;;;;29.82;37.31;69380.78;4913850;28;46160;-82
2023/06/15 16:05:26;;;;;;;;;14.67;13.00;;;;;29.96;37.50;69351.03;4907376;28;45424;-82
2023/06/15 16:07:53;;;;;;;;;11.00;11.00;;;;;29.85;35.46;69460.69;4901804;28;45463;-82
2023/06/15 16:10:19;;;;;;;;;13.33;12.00;;;;;29.84;34.37;69459.50;4914146;28;45473;-87
2023/06/15 16:12:44;;;;;;;;;19.00;13.00;;;;;29.91;36.87;69336.31;4904069;28;45567;-85
2023/06/15 16:15:10;;;;;;;;;14.33;12.33;;;;;29.59;36.63;69397.66;4897157;28;45793;-86
2023/06/15 16:17:35;;;;;;;;;12.00;12.00;;;;;29.83;37.40;69305.63;4972956;28;46033;-87